createdAt,value
2022-09-05T00:02:34.917Z,21.61
2022-09-05T00:06:00.087Z,21.45
2022-09-05T00:09:04.178Z,21.55
2022-09-05T00:12:01.627Z,21.62
2022-09-05T00:15:20.086Z,21.69
2022-09-05T00:24:08.914Z,21.59
2022-09-05T00:24:31.666Z,21.73
2022-09-05T00:26:11.206Z,21.75
2022-09-05T00:30:45.949Z,21.68
2022-09-05T00:33:21.068Z,21.54
2022-09-05T00:36:18.243Z,21.63
2022-09-05T00:39:37.338Z,21.84
2022-09-05T00:42:34.113Z,21.89
2022-09-05T00:45:36.122Z,21.83
2022-09-05T00:48:51.825Z,21.80
2022-09-05T00:51:55.720Z,21.78
2022-09-05T00:55:21.340Z,21.65
2022-09-05T00:58:44.667Z,21.65
2022-09-05T01:01:51.476Z,21.63
2022-09-05T01:04:58.093Z,21.64
2022-09-05T01:08:23.023Z,21.66
2022-09-05T01:15:05.183Z,21.67
2022-09-05T01:18:11.278Z,21.60
2022-09-05T01:21:20.392Z,21.70
2022-09-05T01:24:41.630Z,21.78
2022-09-05T01:28:46.165Z,21.62
2022-09-05T01:31:34.822Z,21.59
2022-09-05T01:35:01.429Z,21.47
2022-09-05T01:38:15.956Z,21.41
2022-09-05T01:41:30.324Z,21.37
2022-09-05T01:44:51.118Z,21.43
2022-09-05T01:48:03.450Z,21.45
2022-09-05T01:51:28.621Z,21.38
2022-09-05T01:54:55.017Z,21.39
2022-09-05T01:58:20.028Z,21.35
2022-09-05T02:01:30.179Z,21.31
2022-09-05T02:04:46.265Z,21.29
2022-09-05T02:08:05.261Z,21.19
2022-09-05T02:11:04.277Z,21.19
2022-09-05T02:14:24.319Z,21.18
2022-09-05T02:17:56.422Z,21.23
2022-09-05T02:20:59.345Z,21.23
2022-09-05T02:24:13.234Z,21.17
2022-09-05T02:28:03.971Z,21.09
2022-09-05T02:30:35.832Z,21.06
2022-09-05T02:34:07.149Z,20.98
2022-09-05T02:40:00.940Z,20.85
2022-09-05T02:45:13.846Z,20.94
2022-09-05T02:45:18.299Z,21.10
2022-09-05T02:48:33.514Z,20.89
2022-09-05T02:57:23.126Z,20.86
2022-09-05T02:57:34.409Z,20.91
2022-09-05T02:59:09.221Z,20.95
2022-09-05T03:02:50.885Z,20.87
2022-09-05T03:06:00.314Z,20.89
2022-09-05T03:09:16.669Z,20.90
2022-09-05T03:12:29.947Z,20.78
2022-09-05T03:15:52.065Z,20.62
2022-09-05T03:19:17.016Z,20.45
2022-09-05T03:22:37.301Z,20.31
2022-09-05T03:25:58.265Z,20.28
2022-09-05T03:29:14.117Z,20.48
2022-09-05T03:32:23.546Z,20.49
2022-09-05T03:35:58.773Z,20.54
2022-09-05T03:39:43.497Z,20.65
2022-09-05T03:43:02.321Z,20.67
2022-09-05T03:46:23.301Z,20.68
2022-09-05T03:51:36.279Z,20.74
2022-09-05T03:57:22.568Z,20.65
2022-09-05T03:57:26.749Z,20.49
2022-09-05T04:00:20.940Z,20.56
2022-09-05T04:08:10.154Z,20.58
2022-09-05T04:08:18.634Z,20.47
2022-09-05T04:10:22.165Z,20.38
2022-09-05T04:13:27.162Z,20.36
2022-09-05T04:16:27.036Z,20.36
2022-09-05T04:19:37.594Z,20.36
2022-09-05T04:22:43.703Z,20.38
2022-09-05T04:25:52.398Z,20.37
2022-09-05T04:29:20.075Z,20.31
2022-09-05T04:32:42.238Z,20.28
2022-09-05T04:35:48.831Z,20.21
2022-09-05T04:38:46.898Z,20.07
2022-09-05T04:41:51.603Z,20.16
2022-09-05T04:45:04.266Z,20.15
2022-09-05T04:48:01.691Z,20.02
2022-09-05T04:51:27.253Z,19.87
2022-09-05T04:54:30.001Z,19.95
2022-09-05T04:57:38.309Z,20.01
2022-09-05T05:05:59.853Z,20.03
2022-09-05T05:06:14.656Z,20.07
2022-09-05T05:07:59.306Z,20.28
2022-09-05T05:16:46.427Z,20.34
2022-09-05T05:18:03.359Z,20.49
2022-09-05T05:18:53.268Z,20.42
2022-09-05T05:21:45.446Z,20.37
2022-09-05T05:24:51.541Z,20.31
2022-09-05T05:28:25.205Z,20.42
2022-09-05T05:31:30.516Z,20.56
2022-09-05T05:34:35.046Z,20.63
2022-09-05T05:37:43.509Z,20.59
2022-09-05T05:40:51.180Z,20.57
2022-09-05T05:43:48.657Z,20.50
2022-09-05T05:47:16.667Z,20.57
2022-09-05T05:50:53.602Z,20.57
2022-09-05T05:54:20.553Z,20.63
2022-09-05T05:57:52.258Z,20.67
2022-09-05T06:00:55.221Z,20.67
2022-09-05T06:04:05.088Z,20.52
2022-09-05T06:07:10.066Z,20.53
2022-09-05T06:14:51.564Z,20.56
2022-09-05T06:14:57.485Z,20.75
2022-09-05T06:18:13.047Z,20.67
2022-09-05T06:22:09.469Z,20.74
2022-09-05T06:25:27.217Z,20.95
2022-09-05T06:28:43.059Z,20.94
2022-09-05T06:31:59.094Z,20.96
2022-09-05T06:35:00.088Z,20.91
2022-09-05T06:38:12.373Z,20.69
2022-09-05T06:41:19.995Z,20.52
2022-09-05T06:44:20.188Z,20.71
2022-09-05T06:47:22.785Z,20.82
2022-09-05T06:50:38.113Z,20.69
2022-09-05T06:54:01.699Z,20.97
2022-09-05T06:57:20.376Z,21.18
2022-09-05T07:00:38.071Z,21.30
2022-09-05T07:03:37.942Z,21.40
2022-09-05T07:06:52.333Z,21.64
2022-09-05T07:10:21.982Z,21.51
2022-09-05T07:13:31.623Z,21.51
2022-09-05T07:16:51.109Z,21.35
2022-09-05T07:20:00.068Z,21.21
2022-09-05T07:23:19.679Z,21.23
2022-09-05T07:26:47.959Z,21.29
2022-09-05T07:29:53.377Z,21.38
2022-09-05T07:32:58.657Z,21.48
2022-09-05T07:35:57.778Z,21.33
2022-09-05T07:39:12.317Z,21.45
2022-09-05T07:42:16.850Z,21.37
2022-09-05T07:45:21.200Z,21.48
2022-09-05T07:48:34.272Z,21.70
2022-09-05T07:56:47.305Z,21.93
2022-09-05T07:57:10.212Z,21.97
2022-09-05T07:58:12.904Z,22.15
2022-09-05T08:01:13.401Z,22.28
2022-09-05T08:04:22.019Z,22.47
2022-09-05T08:07:48.875Z,22.70
2022-09-05T08:11:25.403Z,22.54
2022-09-05T08:14:44.352Z,22.56
2022-09-05T08:17:35.754Z,22.74
2022-09-05T08:20:45.046Z,22.98
2022-09-05T08:23:57.211Z,22.91
2022-09-05T08:27:16.083Z,22.90
2022-09-05T08:30:25.783Z,23.12
2022-09-05T08:33:25.123Z,23.54
2022-09-05T08:36:32.137Z,23.62
2022-09-05T08:39:32.281Z,23.89
2022-09-05T08:42:35.634Z,24.14
2022-09-05T08:46:39.614Z,24.29
2022-09-05T08:49:36.432Z,24.39
2022-09-05T08:52:56.922Z,24.58
2022-09-05T08:56:13.360Z,24.58
2022-09-05T09:00:18.688Z,24.81
2022-09-05T09:03:51.958Z,25.11
2022-09-05T09:07:17.506Z,25.21
2022-09-05T09:10:25.888Z,25.35
2022-09-05T09:13:52.283Z,25.51
2022-09-05T09:17:21.959Z,25.58
2022-09-05T09:20:29.613Z,25.32
2022-09-05T09:23:39.711Z,25.39
2022-09-05T09:26:50.025Z,25.74
2022-09-05T09:29:47.413Z,26.02
2022-09-05T09:32:46.288Z,26.02
2022-09-05T09:35:52.635Z,26.06
2022-09-05T09:39:39.022Z,26.32
2022-09-05T09:42:41.464Z,26.50
2022-09-05T09:45:49.235Z,26.63
2022-09-05T09:49:02.999Z,26.55
2022-09-05T09:52:24.641Z,26.71
2022-09-05T09:55:28.524Z,26.86
2022-09-05T09:58:47.678Z,26.96
2022-09-05T10:02:12.873Z,26.93
2022-09-05T10:11:09.342Z,27.03
2022-09-05T10:11:25.759Z,27.25
2022-09-05T10:12:39.112Z,27.16
2022-09-05T10:16:13.922Z,27.35
2022-09-05T10:23:01.423Z,27.58
2022-09-05T10:26:16.985Z,27.65
2022-09-05T10:29:46.169Z,27.91
2022-09-05T10:35:19.762Z,27.96
2022-09-05T10:36:03.777Z,28.00
2022-09-05T10:39:06.356Z,28.15
2022-09-05T10:42:18.826Z,28.03
2022-09-05T10:45:38.662Z,28.14
2022-09-05T10:48:55.197Z,28.13
2022-09-05T10:52:26.786Z,28.37
2022-09-05T10:55:26.762Z,28.53
2022-09-05T11:01:10.387Z,28.75
2022-09-05T11:02:27.905Z,28.65
2022-09-05T11:05:26.635Z,28.71
2022-09-05T11:09:24.077Z,28.78
2022-09-05T11:12:58.905Z,28.92
2022-09-05T11:16:05.036Z,28.75
2022-09-05T11:19:11.584Z,28.82
2022-09-05T11:22:22.060Z,28.97
2022-09-05T11:25:40.179Z,29.25
2022-09-05T11:29:00.724Z,29.45
2022-09-05T11:34:24.752Z,29.46
2022-09-05T11:40:06.814Z,29.72
2022-09-05T11:40:10.269Z,29.58
2022-09-05T11:43:20.443Z,29.45
2022-09-05T11:46:20.945Z,29.47
2022-09-05T11:49:31.476Z,29.43
2022-09-05T11:52:46.789Z,29.66
2022-09-05T11:55:57.428Z,29.57
2022-09-05T11:59:33.511Z,29.55
2022-09-05T12:02:42.126Z,29.56
2022-09-05T12:05:59.611Z,29.73
2022-09-05T12:09:01.337Z,29.63
2022-09-05T12:12:39.348Z,29.62
2022-09-05T12:15:49.724Z,29.69
2022-09-05T12:19:20.173Z,29.83
2022-09-05T12:22:35.241Z,30.00
2022-09-05T12:27:39.058Z,30.11
2022-09-05T12:29:28.957Z,29.86
2022-09-05T12:35:22.518Z,29.86
2022-09-05T12:40:35.524Z,29.77
2022-09-05T12:41:33.758Z,30.05
2022-09-05T12:44:39.324Z,30.09
2022-09-05T12:46:31.036Z,30.19
2022-09-05T12:49:36.338Z,30.00
2022-09-05T12:52:34.009Z,29.97
2022-09-05T12:55:34.036Z,30.22
2022-09-05T13:02:55.032Z,30.43
2022-09-05T13:03:13.877Z,30.08
2022-09-05T13:05:46.177Z,29.83
2022-09-05T13:08:58.929Z,29.65
2022-09-05T13:14:49.646Z,29.94
2022-09-05T13:15:43.575Z,29.70
2022-09-05T13:18:41.907Z,29.42
2022-09-05T13:21:52.564Z,29.40
2022-09-05T13:24:52.879Z,29.70
2022-09-05T13:27:56.769Z,30.10
2022-09-05T13:35:11.015Z,30.25
2022-09-05T13:38:01.201Z,29.88
2022-09-05T13:38:37.650Z,29.55
2022-09-05T13:41:44.878Z,29.84
2022-09-05T13:44:43.728Z,29.98
2022-09-05T13:47:56.128Z,30.15
2022-09-05T13:50:54.923Z,29.95
2022-09-05T13:54:09.722Z,29.51
2022-09-05T13:57:38.908Z,29.35
2022-09-05T14:00:38.280Z,29.26
2022-09-05T14:04:01.343Z,29.53
2022-09-05T14:07:46.101Z,29.74
2022-09-05T14:11:04.797Z,29.36
2022-09-05T14:18:19.945Z,29.16
2022-09-05T14:21:20.763Z,29.12
2022-09-05T14:24:27.631Z,29.35
2022-09-05T14:27:31.949Z,29.20
2022-09-05T14:31:40.043Z,29.24
2022-09-05T14:37:49.008Z,29.49
2022-09-05T14:38:15.828Z,29.60
2022-09-05T14:42:09.632Z,29.67
2022-09-05T14:45:09.613Z,29.91
2022-09-05T14:48:14.637Z,30.03
2022-09-05T14:51:25.653Z,30.46
2022-09-05T15:02:42.186Z,30.59
2022-09-05T15:02:52.181Z,30.64
2022-09-05T15:04:36.196Z,30.36
2022-09-05T15:07:40.802Z,30.17
2022-09-05T15:12:14.554Z,30.30
2022-09-05T15:14:05.251Z,30.38
2022-09-05T15:17:05.178Z,30.31
2022-09-05T15:20:08.113Z,30.32
2022-09-05T15:23:17.069Z,30.44
2022-09-05T15:26:25.600Z,30.45
2022-09-05T15:29:26.157Z,30.45
2022-09-05T15:32:27.754Z,30.38
2022-09-05T15:35:36.216Z,30.41
2022-09-05T15:38:46.685Z,30.49
2022-09-05T15:42:16.541Z,30.50
2022-09-05T15:45:17.730Z,30.72
2022-09-05T15:48:21.987Z,30.82
2022-09-05T15:51:40.601Z,30.78
2022-09-05T15:54:48.963Z,30.52
2022-09-05T15:57:51.074Z,30.51
2022-09-05T16:00:52.010Z,30.49
2022-09-05T16:06:53.884Z,30.22
2022-09-05T16:10:29.414Z,29.95
2022-09-05T16:10:59.145Z,29.95
2022-09-05T16:13:53.311Z,30.14
2022-09-05T16:23:20.017Z,30.08
2022-09-05T16:23:24.445Z,30.17
2022-09-05T16:24:15.423Z,30.26
2022-09-05T16:27:14.462Z,30.28
2022-09-05T16:30:19.734Z,30.35
2022-09-05T16:33:25.703Z,30.32
2022-09-05T16:36:27.329Z,30.21
2022-09-05T16:39:24.265Z,30.18
2022-09-05T16:42:46.862Z,30.07
2022-09-05T16:45:48.097Z,29.93
2022-09-05T16:48:48.026Z,29.83
2022-09-05T16:51:55.812Z,29.55
2022-09-05T16:55:02.971Z,29.47
2022-09-05T16:58:12.549Z,29.20
2022-09-05T17:01:41.415Z,29.24
2022-09-05T17:05:03.376Z,29.24
2022-09-05T17:08:17.230Z,29.26
2022-09-05T17:11:29.918Z,29.18
2022-09-05T17:14:46.620Z,29.17
2022-09-05T17:18:19.598Z,29.08
2022-09-05T17:21:07.202Z,29.00
2022-09-05T17:29:18.886Z,28.97
2022-09-05T17:29:30.531Z,29.01
2022-09-05T17:34:21.084Z,29.07
2022-09-05T17:37:32.510Z,29.04
2022-09-05T17:40:56.294Z,29.00
2022-09-05T17:44:29.077Z,28.92
2022-09-05T17:47:46.228Z,28.80
2022-09-05T17:50:51.133Z,28.68
2022-09-05T17:54:18.710Z,28.57
2022-09-05T17:57:28.174Z,28.51
2022-09-05T18:00:51.542Z,28.40
2022-09-05T18:03:48.902Z,28.29
2022-09-05T18:06:51.075Z,28.20
2022-09-05T18:10:14.886Z,27.98
2022-09-05T18:13:32.524Z,27.92
2022-09-05T18:16:45.384Z,27.97
2022-09-05T18:20:06.384Z,28.12
2022-09-05T18:26:39.653Z,28.08
2022-09-05T18:29:58.550Z,27.86
2022-09-05T18:33:53.749Z,27.57
2022-09-05T18:36:25.588Z,27.49
2022-09-05T18:39:26.316Z,27.41
2022-09-05T18:42:33.234Z,27.40
2022-09-05T18:45:33.674Z,27.28
2022-09-05T18:48:40.503Z,27.27
2022-09-05T18:51:52.585Z,27.35
2022-09-05T18:54:56.550Z,27.26
2022-09-05T18:58:13.494Z,27.18
2022-09-05T19:01:23.592Z,27.00
2022-09-05T19:04:38.994Z,26.99
2022-09-05T19:07:49.308Z,26.90
2022-09-05T19:10:58.951Z,26.97
2022-09-05T19:14:25.336Z,26.82
2022-09-05T19:17:33.786Z,26.72
2022-09-05T19:20:51.612Z,26.58
2022-09-05T19:23:57.079Z,26.40
2022-09-05T19:27:35.837Z,26.48
2022-09-05T19:36:47.177Z,26.60
2022-09-05T19:37:22.526Z,26.72
2022-09-05T19:37:30.484Z,26.72
2022-09-05T19:47:25.355Z,26.72
2022-09-05T19:47:42.239Z,26.31
2022-09-05T19:47:49.092Z,26.43
2022-09-05T19:50:14.218Z,26.33
2022-09-05T19:53:13.707Z,26.42
2022-09-05T19:56:11.662Z,26.35
2022-09-05T19:59:29.370Z,26.30
2022-09-05T20:02:36.101Z,26.00
2022-09-05T20:05:33.878Z,26.14
2022-09-05T20:08:35.065Z,26.11
2022-09-05T20:11:45.661Z,25.83
2022-09-05T20:14:43.286Z,25.85
2022-09-05T20:17:43.227Z,25.97
2022-09-05T20:20:40.269Z,25.92
2022-09-05T20:23:49.386Z,25.80
2022-09-05T20:26:46.544Z,25.91
2022-09-05T20:30:20.546Z,25.97
2022-09-05T20:33:32.355Z,25.82
2022-09-05T20:43:07.736Z,25.65
2022-09-05T20:43:17.349Z,25.67
2022-09-05T20:43:42.515Z,25.59
2022-09-05T20:49:32.439Z,25.49
2022-09-05T20:54:18.233Z,25.42
2022-09-05T20:54:18.859Z,25.41
2022-09-05T20:56:48.886Z,25.42
2022-09-05T20:59:53.327Z,25.28
2022-09-05T21:02:58.486Z,25.15
2022-09-05T21:05:56.569Z,25.07
2022-09-05T21:08:56.161Z,24.96
2022-09-05T21:11:54.981Z,25.02
2022-09-05T21:15:03.651Z,25.06
2022-09-05T21:18:19.418Z,25.00
2022-09-05T21:21:28.918Z,25.14
2022-09-05T21:24:27.555Z,25.08
2022-09-05T21:27:25.159Z,24.96
2022-09-05T21:30:30.779Z,25.06
2022-09-05T21:33:37.481Z,25.05
2022-09-05T21:36:42.264Z,24.78
2022-09-05T21:39:59.411Z,24.85
2022-09-05T21:47:38.025Z,24.69
2022-09-05T21:47:49.353Z,24.69
2022-09-05T21:49:36.689Z,24.65
2022-09-05T21:52:37.345Z,24.60
2022-09-05T21:59:30.076Z,24.53
2022-09-05T21:59:32.963Z,24.63
2022-09-05T22:02:32.114Z,24.62
2022-09-05T22:05:34.603Z,24.39
2022-09-05T22:08:31.424Z,24.34
2022-09-05T22:11:28.556Z,24.20
2022-09-05T22:14:25.624Z,24.18
2022-09-05T22:17:22.431Z,24.08
2022-09-05T22:20:22.924Z,23.82
2022-09-05T22:23:20.604Z,23.68
2022-09-05T22:26:18.019Z,23.71
2022-09-05T22:29:18.431Z,23.74
2022-09-05T22:32:16.137Z,23.78
2022-09-05T22:35:28.410Z,23.71
2022-09-05T22:38:26.365Z,23.96
2022-09-05T22:41:30.341Z,23.83
2022-09-05T22:44:28.528Z,23.86
2022-09-05T22:47:26.957Z,23.90
2022-09-05T22:50:24.653Z,23.70
2022-09-05T22:53:22.605Z,23.72
2022-09-05T22:56:33.211Z,23.77
2022-09-05T22:59:30.454Z,23.86
2022-09-05T23:02:27.505Z,23.97
2022-09-05T23:05:24.215Z,24.03
2022-09-05T23:08:21.421Z,23.91
2022-09-05T23:11:18.482Z,23.87
2022-09-05T23:14:15.249Z,23.86
2022-09-05T23:17:15.494Z,23.81
2022-09-05T23:20:12.646Z,23.62
2022-09-05T23:23:09.415Z,23.52
2022-09-05T23:26:10.626Z,23.47
2022-09-05T23:29:07.673Z,23.65
2022-09-05T23:32:04.323Z,23.74
2022-09-05T23:35:01.812Z,23.75
2022-09-05T23:37:59.341Z,23.55
2022-09-05T23:41:07.121Z,23.48
2022-09-05T23:44:04.510Z,23.49
2022-09-05T23:47:01.199Z,23.58
2022-09-05T23:49:58.829Z,23.71
2022-09-05T23:52:56.419Z,23.75
2022-09-05T23:55:53.220Z,23.87
2022-09-05T23:58:50.509Z,23.88
